createdAt,value
2023-01-07T00:01:33.818Z,3.83
2023-01-07T00:04:02.617Z,3.70
2023-01-07T00:06:33.397Z,3.78
2023-01-07T00:09:01.597Z,3.28
2023-01-07T00:11:38.323Z,3.35
2023-01-07T00:14:08.651Z,3.15
2023-01-07T00:16:37.226Z,4.50
2023-01-07T00:19:07.426Z,7.25
2023-01-07T00:24:05.993Z,5.32
2023-01-07T00:26:36.382Z,4.65
2023-01-07T00:29:05.912Z,4.82
2023-01-07T00:31:37.450Z,4.55
2023-01-07T00:34:05.085Z,4.50
2023-01-07T00:36:42.700Z,4.90
2023-01-07T00:39:19.941Z,4.93
2023-01-07T00:42:06.978Z,6.50
2023-01-07T00:44:37.039Z,9.50
2023-01-07T00:47:04.107Z,10.13
2023-01-07T00:49:31.509Z,14.57
2023-01-07T00:51:58.726Z,22.35
2023-01-07T00:54:25.750Z,22.70
2023-01-07T00:56:52.718Z,21.55
2023-01-07T00:59:20.094Z,16.95
2023-01-07T01:01:47.482Z,17.35
2023-01-07T01:04:15.205Z,15.73
2023-01-07T01:06:42.195Z,13.07
2023-01-07T01:09:09.164Z,12.23
2023-01-07T01:11:42.843Z,12.68
2023-01-07T01:14:11.666Z,13.25
2023-01-07T01:16:39.147Z,11.55
2023-01-07T01:19:06.830Z,9.50
2023-01-07T01:21:33.826Z,10.27
2023-01-07T01:24:00.895Z,10.18
2023-01-07T01:26:27.879Z,9.98
2023-01-07T01:28:54.858Z,9.95
2023-01-07T01:31:24.305Z,8.60
2023-01-07T01:33:57.303Z,8.52
2023-01-07T01:36:25.144Z,8.05
2023-01-07T01:41:22.196Z,6.20
2023-01-07T01:43:51.974Z,5.10
2023-01-07T01:46:38.316Z,4.93
2023-01-07T01:49:36.958Z,5.25
2023-01-07T01:52:11.777Z,5.88
2023-01-07T01:54:42.729Z,5.90
2023-01-07T01:57:10.437Z,5.15
2023-01-07T01:59:44.138Z,4.93
2023-01-07T02:02:18.373Z,4.70
2023-01-07T02:04:45.494Z,4.50
2023-01-07T02:07:17.211Z,4.30
2023-01-07T02:10:19.833Z,4.00
2023-01-07T02:13:16.887Z,4.15
2023-01-07T02:16:07.833Z,3.90
2023-01-07T02:19:25.498Z,3.50
2023-01-07T02:22:42.382Z,3.10
2023-01-07T02:25:30.251Z,2.60
2023-01-07T02:28:09.466Z,3.20
2023-01-07T02:30:54.531Z,2.35
2023-01-07T02:34:01.386Z,2.30
2023-01-07T02:36:54.539Z,3.00
2023-01-07T02:39:39.030Z,2.42
2023-01-07T02:42:43.016Z,2.53
2023-01-07T02:45:32.830Z,2.53
2023-01-07T02:50:32.905Z,2.28
2023-01-07T02:53:00.936Z,2.63
2023-01-07T02:55:39.858Z,2.63
2023-01-07T02:58:28.662Z,3.42
2023-01-07T03:01:42.969Z,2.45
2023-01-07T03:04:19.171Z,2.28
2023-01-07T03:07:02.253Z,3.13
2023-01-07T03:09:53.198Z,2.95
2023-01-07T03:12:42.686Z,2.95
2023-01-07T03:15:23.115Z,2.33
2023-01-07T03:18:19.638Z,2.70
2023-01-07T03:20:51.702Z,2.63
2023-01-07T03:23:22.650Z,2.75
2023-01-07T03:25:52.006Z,2.33
2023-01-07T03:28:27.351Z,2.63
2023-01-07T03:30:57.790Z,2.50
2023-01-07T03:33:39.625Z,2.15
2023-01-07T03:36:10.948Z,2.45
2023-01-07T03:38:40.305Z,2.30
2023-01-07T03:41:07.951Z,2.13
2023-01-07T03:43:35.382Z,2.47
2023-01-07T03:46:02.553Z,2.83
2023-01-07T03:48:29.622Z,2.60
2023-01-07T03:50:57.064Z,2.35
2023-01-07T03:53:24.098Z,2.70
2023-01-07T03:55:52.071Z,3.00
2023-01-07T03:58:19.444Z,3.10
2023-01-07T04:00:46.470Z,3.28
2023-01-07T04:03:18.482Z,3.05
2023-01-07T04:05:47.468Z,3.30
2023-01-07T04:08:15.061Z,2.97
2023-01-07T04:10:42.665Z,2.70
2023-01-07T04:13:13.532Z,2.88
2023-01-07T04:15:44.986Z,2.85
2023-01-07T04:18:12.491Z,3.70
2023-01-07T04:20:39.790Z,3.17
2023-01-07T04:23:06.757Z,3.78
2023-01-07T04:25:34.009Z,4.70
2023-01-07T04:28:04.498Z,5.30
2023-01-07T04:30:33.366Z,4.13
2023-01-07T04:33:01.832Z,3.92
2023-01-07T04:35:28.843Z,4.15
2023-01-07T04:37:56.549Z,4.05
2023-01-07T04:40:23.648Z,4.05
2023-01-07T04:42:50.846Z,4.10
2023-01-07T04:45:18.178Z,3.20
2023-01-07T04:47:46.615Z,3.10
2023-01-07T04:50:14.607Z,3.40
2023-01-07T04:52:42.552Z,3.28
2023-01-07T04:55:11.100Z,2.30
2023-01-07T04:57:38.892Z,2.75
2023-01-07T05:00:08.996Z,2.85
2023-01-07T05:02:36.690Z,2.20
2023-01-07T05:05:05.352Z,2.45
2023-01-07T05:07:32.749Z,2.05
2023-01-07T05:10:00.605Z,2.30
2023-01-07T05:12:29.156Z,2.20
2023-01-07T05:14:56.241Z,2.92
2023-01-07T05:17:23.295Z,2.45
2023-01-07T05:19:51.166Z,2.22
2023-01-07T05:22:18.151Z,2.13
2023-01-07T05:24:45.121Z,2.10
2023-01-07T05:27:12.475Z,2.53
2023-01-07T05:29:40.935Z,2.50
2023-01-07T05:32:07.860Z,2.70
2023-01-07T05:34:37.323Z,2.78
2023-01-07T05:37:04.312Z,2.35
2023-01-07T05:39:34.299Z,2.30
2023-01-07T05:42:03.662Z,3.10
2023-01-07T05:44:31.043Z,3.25
2023-01-07T05:46:58.617Z,3.42
2023-01-07T05:49:25.566Z,2.92
2023-01-07T05:51:52.578Z,3.03
2023-01-07T05:54:19.754Z,3.20
2023-01-07T05:56:46.848Z,3.10
2023-01-07T05:59:14.157Z,2.65
2023-01-07T06:01:41.527Z,2.45
2023-01-07T06:04:09.339Z,2.08
2023-01-07T06:06:36.292Z,1.75
2023-01-07T06:09:03.267Z,2.30
2023-01-07T06:11:30.437Z,2.22
2023-01-07T06:13:57.387Z,2.00
2023-01-07T06:16:24.331Z,1.77
2023-01-07T06:18:51.325Z,2.33
2023-01-07T06:21:18.612Z,2.10
2023-01-07T06:23:45.782Z,2.20
2023-01-07T06:26:12.929Z,1.63
2023-01-07T06:28:39.899Z,2.17
2023-01-07T06:31:09.658Z,2.00
2023-01-07T06:33:37.995Z,2.67
2023-01-07T06:36:05.672Z,3.20
2023-01-07T06:38:34.289Z,3.50
2023-01-07T06:41:02.358Z,3.88
2023-01-07T06:43:30.022Z,3.28
2023-01-07T06:45:57.172Z,2.70
2023-01-07T06:48:24.469Z,2.88
2023-01-07T06:50:51.511Z,2.65
2023-01-07T06:53:18.820Z,2.30
2023-01-07T06:55:50.231Z,2.65
2023-01-07T06:58:18.394Z,5.32
2023-01-07T07:00:45.501Z,15.20
2023-01-07T07:03:12.798Z,12.30
2023-01-07T07:05:40.356Z,7.28
2023-01-07T07:08:07.282Z,4.68
2023-01-07T07:10:34.416Z,4.20
2023-01-07T07:13:01.961Z,5.25
2023-01-07T07:15:29.013Z,4.85
2023-01-07T07:17:56.450Z,23.95
2023-01-07T07:20:24.732Z,25.52
2023-01-07T07:22:51.744Z,9.85
2023-01-07T07:25:18.890Z,9.23
2023-01-07T07:27:46.741Z,5.47
2023-01-07T07:30:15.573Z,4.13
2023-01-07T07:32:43.382Z,4.60
2023-01-07T07:35:11.223Z,3.75
2023-01-07T07:37:38.899Z,3.58
2023-01-07T07:40:07.558Z,3.00
2023-01-07T07:43:11.788Z,3.70
2023-01-07T07:45:21.747Z,2.28
2023-01-07T07:47:48.767Z,2.80
2023-01-07T07:50:15.853Z,2.17
2023-01-07T07:52:42.969Z,2.08
2023-01-07T07:55:20.097Z,1.70
2023-01-07T07:57:58.153Z,1.73
2023-01-07T08:00:25.188Z,2.05
2023-01-07T08:02:52.187Z,3.10
2023-01-07T08:05:19.284Z,4.35
2023-01-07T08:07:46.252Z,6.55
2023-01-07T08:10:13.536Z,17.38
2023-01-07T08:12:40.742Z,4.38
2023-01-07T08:15:08.436Z,4.05
2023-01-07T08:17:39.224Z,2.63
2023-01-07T08:20:07.960Z,2.90
2023-01-07T08:22:35.251Z,5.65
2023-01-07T08:25:02.653Z,2.55
2023-01-07T08:27:30.299Z,2.15
2023-01-07T08:29:57.241Z,2.20
2023-01-07T08:32:24.266Z,2.63
2023-01-07T08:34:51.374Z,2.00
2023-01-07T08:37:18.323Z,1.70
2023-01-07T08:39:45.367Z,2.22
2023-01-07T08:42:12.294Z,2.35
2023-01-07T08:44:39.537Z,1.98
2023-01-07T08:47:06.911Z,1.95
2023-01-07T08:49:33.887Z,2.03
2023-01-07T08:52:01.566Z,1.77
2023-01-07T08:54:28.844Z,2.17
2023-01-07T08:56:56.105Z,3.55
2023-01-07T08:59:23.430Z,7.00
2023-01-07T09:01:50.490Z,5.00
2023-01-07T09:04:17.531Z,3.40
2023-01-07T09:06:44.759Z,2.63
2023-01-07T09:09:14.317Z,2.50
2023-01-07T09:11:41.305Z,2.05
2023-01-07T09:14:08.358Z,7.53
2023-01-07T09:16:35.668Z,6.82
2023-01-07T09:19:02.888Z,11.95
2023-01-07T09:21:29.795Z,6.57
2023-01-07T09:23:56.773Z,4.50
2023-01-07T09:26:23.747Z,12.75
2023-01-07T09:28:50.788Z,20.27
2023-01-07T09:31:17.813Z,15.60
2023-01-07T09:33:45.151Z,10.02
2023-01-07T09:36:12.158Z,8.30
2023-01-07T09:38:39.229Z,5.22
2023-01-07T09:41:53.876Z,4.65
2023-01-07T09:45:04.454Z,4.82
2023-01-07T09:47:36.996Z,13.60
2023-01-07T09:50:29.324Z,7.38
2023-01-07T09:53:01.836Z,7.97
2023-01-07T09:55:38.956Z,8.35
2023-01-07T09:58:26.364Z,3.88
2023-01-07T10:00:58.351Z,3.83
2023-01-07T10:03:58.046Z,5.20
2023-01-07T10:06:51.521Z,10.45
2023-01-07T10:09:56.854Z,10.57
2023-01-07T10:12:37.568Z,6.88
2023-01-07T10:15:18.867Z,8.35
2023-01-07T10:17:51.695Z,9.05
2023-01-07T10:20:44.125Z,12.30
2023-01-07T10:23:19.385Z,3.95
2023-01-07T10:25:54.098Z,4.10
2023-01-07T10:28:59.924Z,7.38
2023-01-07T10:31:28.725Z,7.07
2023-01-07T10:33:57.865Z,7.72
2023-01-07T10:36:34.902Z,5.53
2023-01-07T10:39:26.404Z,6.90
2023-01-07T10:42:38.013Z,7.80
2023-01-07T10:45:46.266Z,34.10
2023-01-07T10:48:48.878Z,36.67
2023-01-07T10:51:34.562Z,21.35
2023-01-07T10:54:44.932Z,14.93
2023-01-07T10:59:56.415Z,19.88
2023-01-07T11:02:27.511Z,17.85
2023-01-07T11:04:57.066Z,5.10
2023-01-07T11:07:50.056Z,3.03
2023-01-07T11:10:32.514Z,2.85
2023-01-07T11:13:14.884Z,8.02
2023-01-07T11:15:50.611Z,5.55
2023-01-07T11:18:26.952Z,5.05
2023-01-07T11:20:59.945Z,4.32
2023-01-07T11:23:36.753Z,2.20
2023-01-07T11:26:27.462Z,1.83
2023-01-07T11:28:58.583Z,2.83
2023-01-07T11:31:55.853Z,3.42
2023-01-07T11:34:32.446Z,4.55
2023-01-07T11:36:59.747Z,4.25
2023-01-07T11:39:33.754Z,4.18
2023-01-07T11:42:22.450Z,3.20
2023-01-07T11:44:49.437Z,2.70
2023-01-07T11:47:18.482Z,2.22
2023-01-07T11:49:46.112Z,2.00
2023-01-07T11:52:20.279Z,1.90
2023-01-07T11:54:52.348Z,1.92
2023-01-07T11:57:26.829Z,2.00
2023-01-07T12:00:20.390Z,1.60
2023-01-07T12:03:09.511Z,2.10
2023-01-07T12:05:36.983Z,1.70
2023-01-07T12:08:05.680Z,1.85
2023-01-07T12:10:41.873Z,1.52
2023-01-07T12:13:25.684Z,1.80
2023-01-07T12:16:02.838Z,1.38
2023-01-07T12:18:57.712Z,1.58
2023-01-07T12:21:35.241Z,1.63
2023-01-07T12:24:09.121Z,1.83
2023-01-07T12:26:56.881Z,2.20
2023-01-07T12:29:45.440Z,12.30
2023-01-07T12:32:36.659Z,10.88
2023-01-07T12:35:15.703Z,4.35
2023-01-07T12:37:58.813Z,1.83
2023-01-07T12:40:42.398Z,1.42
2023-01-07T12:43:22.377Z,1.70
2023-01-07T12:46:10.819Z,4.03
2023-01-07T12:48:48.769Z,2.92
2023-01-07T12:51:25.425Z,3.95
2023-01-07T12:54:12.771Z,3.50
2023-01-07T12:57:03.932Z,2.08
2023-01-07T12:59:46.316Z,2.20
2023-01-07T13:02:51.102Z,5.00
2023-01-07T13:05:26.606Z,2.20
2023-01-07T13:08:04.171Z,2.17
2023-01-07T13:10:46.911Z,2.10
2023-01-07T13:13:22.586Z,3.33
2023-01-07T13:15:50.942Z,1.80
2023-01-07T13:18:20.863Z,3.70
2023-01-07T13:21:14.994Z,5.60
2023-01-07T13:24:08.860Z,2.38
2023-01-07T13:27:19.263Z,2.08
2023-01-07T13:30:18.527Z,1.95
2023-01-07T13:33:05.166Z,2.67
2023-01-07T13:36:28.174Z,1.60
2023-01-07T13:39:16.333Z,1.40
2023-01-07T13:42:15.810Z,1.90
2023-01-07T13:44:57.648Z,1.70
2023-01-07T13:47:36.796Z,1.90
2023-01-07T13:50:04.752Z,2.07
2023-01-07T13:52:34.181Z,3.30
2023-01-07T13:55:25.848Z,1.92
2023-01-07T13:57:52.868Z,2.30
2023-01-07T14:00:42.247Z,2.10
2023-01-07T14:03:55.290Z,3.17
2023-01-07T14:06:22.256Z,2.03
2023-01-07T14:09:16.076Z,2.10
2023-01-07T14:12:16.266Z,2.22
2023-01-07T14:15:05.924Z,1.80
2023-01-07T14:17:57.951Z,2.50
2023-01-07T14:20:35.422Z,2.70
2023-01-07T14:23:16.209Z,2.85
2023-01-07T14:26:23.969Z,3.25
2023-01-07T14:29:12.306Z,2.47
2023-01-07T14:31:39.617Z,2.65
2023-01-07T14:34:22.957Z,2.35
2023-01-07T14:37:02.373Z,2.33
2023-01-07T14:39:35.530Z,3.00
2023-01-07T14:42:20.921Z,2.85
2023-01-07T14:44:50.357Z,2.60
2023-01-07T14:47:45.411Z,2.23
2023-01-07T14:50:27.431Z,2.88
2023-01-07T14:54:10.256Z,43.80
2023-01-07T14:57:03.043Z,123.72
2023-01-07T15:00:13.499Z,16.90
2023-01-07T15:03:24.249Z,4.63
2023-01-07T15:06:12.390Z,4.53
2023-01-07T15:09:50.046Z,4.32
2023-01-07T15:12:46.907Z,3.40
2023-01-07T15:15:46.918Z,2.78
2023-01-07T15:18:15.516Z,2.85
2023-01-07T15:21:19.283Z,3.45
2023-01-07T15:24:13.666Z,3.45
2023-01-07T15:27:02.313Z,3.33
2023-01-07T15:30:05.904Z,2.75
2023-01-07T15:32:41.492Z,3.15
2023-01-07T15:35:17.493Z,3.25
2023-01-07T15:37:51.489Z,3.20
2023-01-07T15:40:23.478Z,4.20
2023-01-07T15:42:54.502Z,4.22
2023-01-07T15:45:26.344Z,4.60
2023-01-07T15:48:07.902Z,3.80
2023-01-07T15:50:37.589Z,4.20
2023-01-07T15:53:11.053Z,2.88
2023-01-07T15:55:51.928Z,3.42
2023-01-07T15:58:40.193Z,5.55
2023-01-07T16:01:15.864Z,7.28
2023-01-07T16:03:47.279Z,6.85
2023-01-07T16:06:39.098Z,7.05
2023-01-07T16:09:19.129Z,5.05
2023-01-07T16:11:46.637Z,4.63
2023-01-07T16:14:35.221Z,4.30
2023-01-07T16:17:16.165Z,5.82
2023-01-07T16:19:43.144Z,6.80
2023-01-07T16:22:24.761Z,7.40
2023-01-07T16:24:55.849Z,6.90
2023-01-07T16:27:30.172Z,9.25
2023-01-07T16:29:59.537Z,8.70
2023-01-07T16:32:27.606Z,10.23
2023-01-07T16:35:19.562Z,14.15
2023-01-07T16:37:49.126Z,14.98
2023-01-07T16:40:35.419Z,12.70
2023-01-07T16:43:03.749Z,11.13
2023-01-07T16:45:36.250Z,12.23
2023-01-07T16:48:21.351Z,12.13
2023-01-07T16:50:50.094Z,12.43
2023-01-07T16:53:32.258Z,16.50
2023-01-07T16:56:02.491Z,13.13
2023-01-07T17:01:08.751Z,11.43
2023-01-07T17:03:58.511Z,10.98
2023-01-07T17:06:41.243Z,8.20
2023-01-07T17:09:37.734Z,7.88
2023-01-07T17:12:05.785Z,9.35
2023-01-07T17:14:36.833Z,8.40
2023-01-07T17:17:19.569Z,8.07
2023-01-07T17:20:12.492Z,7.70
2023-01-07T17:22:40.348Z,9.70
2023-01-07T17:25:14.809Z,10.15
2023-01-07T17:28:07.633Z,13.60
2023-01-07T17:30:36.573Z,14.02
2023-01-07T17:33:04.591Z,13.55
2023-01-07T17:35:31.707Z,21.02
2023-01-07T17:37:58.842Z,16.45
2023-01-07T17:40:25.900Z,12.45
2023-01-07T17:43:12.048Z,10.25
2023-01-07T17:45:39.279Z,9.68
2023-01-07T17:48:13.811Z,9.88
2023-01-07T17:50:42.241Z,10.50
2023-01-07T17:53:28.366Z,10.63
2023-01-07T17:55:55.518Z,10.30
2023-01-07T17:58:34.821Z,8.40
2023-01-07T18:01:07.119Z,6.20
2023-01-07T18:03:34.423Z,6.15
2023-01-07T18:06:02.126Z,6.15
2023-01-07T18:08:29.684Z,5.90
2023-01-07T18:11:16.129Z,6.35
2023-01-07T18:13:43.605Z,6.32
2023-01-07T18:16:14.112Z,7.03
2023-01-07T18:18:41.247Z,6.60
2023-01-07T18:21:11.517Z,8.60
2023-01-07T18:26:06.543Z,11.43
2023-01-07T18:28:33.893Z,16.05
2023-01-07T18:31:01.494Z,13.55
2023-01-07T18:33:28.842Z,11.90
2023-01-07T18:35:56.030Z,10.00
2023-01-07T18:38:23.410Z,9.63
2023-01-07T18:40:50.679Z,8.05
2023-01-07T18:43:19.199Z,8.52
2023-01-07T18:45:48.477Z,9.95
2023-01-07T18:48:18.300Z,8.83
2023-01-07T18:50:48.996Z,8.55
2023-01-07T18:53:18.069Z,8.35
2023-01-07T18:55:46.209Z,8.10
2023-01-07T18:58:14.941Z,7.50
2023-01-07T19:00:42.868Z,8.32
2023-01-07T19:03:11.082Z,9.27
2023-01-07T19:05:41.717Z,9.18
2023-01-07T19:08:08.810Z,8.38
2023-01-07T19:10:42.229Z,7.75
2023-01-07T19:13:09.503Z,7.60
2023-01-07T19:15:38.193Z,7.93
2023-01-07T19:18:05.694Z,8.60
2023-01-07T19:20:32.805Z,10.55
2023-01-07T19:23:01.133Z,12.52
2023-01-07T19:25:31.091Z,10.32
2023-01-07T19:27:58.510Z,11.07
2023-01-07T19:30:25.830Z,10.38
2023-01-07T19:32:53.401Z,10.10
2023-01-07T19:35:28.311Z,9.27
2023-01-07T19:37:55.769Z,8.50
2023-01-07T19:40:23.591Z,7.63
2023-01-07T19:42:53.722Z,6.35
2023-01-07T19:45:21.886Z,6.40
2023-01-07T19:47:51.513Z,6.82
2023-01-07T19:50:20.644Z,7.28
2023-01-07T19:52:48.178Z,7.43
2023-01-07T19:55:15.750Z,7.15
2023-01-07T19:57:46.389Z,7.25
2023-01-07T20:00:18.771Z,8.43
2023-01-07T20:02:47.111Z,7.80
2023-01-07T20:05:15.934Z,7.63
2023-01-07T20:07:43.142Z,6.82
2023-01-07T20:10:11.405Z,6.60
2023-01-07T20:12:39.334Z,7.13
2023-01-07T20:15:07.300Z,6.30
2023-01-07T20:17:34.887Z,7.10
2023-01-07T20:20:02.347Z,9.15
2023-01-07T20:22:29.955Z,9.48
2023-01-07T20:24:57.044Z,11.73
2023-01-07T20:27:25.429Z,11.82
2023-01-07T20:29:53.664Z,15.13
2023-01-07T20:32:21.323Z,16.45
2023-01-07T20:34:48.857Z,13.32
2023-01-07T20:37:19.945Z,10.48
2023-01-07T20:39:47.131Z,6.95
2023-01-07T20:43:08.911Z,5.95
2023-01-07T20:45:11.157Z,5.70
2023-01-07T20:47:38.509Z,5.32
2023-01-07T20:50:06.926Z,5.63
2023-01-07T20:52:34.415Z,5.22
2023-01-07T20:55:01.812Z,6.05
2023-01-07T20:57:31.297Z,5.07
2023-01-07T20:59:58.392Z,5.35
2023-01-07T21:02:25.769Z,4.97
2023-01-07T21:04:53.823Z,4.93
2023-01-07T21:07:21.006Z,5.60
2023-01-07T21:09:48.805Z,5.68
2023-01-07T21:12:15.898Z,5.38
2023-01-07T21:14:43.342Z,4.93
2023-01-07T21:17:10.341Z,5.68
2023-01-07T21:19:41.300Z,5.85
2023-01-07T21:22:08.494Z,6.43
2023-01-07T21:24:35.633Z,6.88
2023-01-07T21:27:03.080Z,7.35
2023-01-07T21:29:30.174Z,9.13
2023-01-07T21:31:57.914Z,11.10
2023-01-07T21:34:25.151Z,11.30
2023-01-07T21:36:52.382Z,11.70
2023-01-07T21:39:22.262Z,13.70
2023-01-07T21:41:49.704Z,20.33
2023-01-07T21:44:17.062Z,21.23
2023-01-07T21:46:48.209Z,32.25
2023-01-07T21:49:21.581Z,34.97
2023-01-07T21:51:50.364Z,28.23
2023-01-07T21:54:17.593Z,22.58
2023-01-07T21:56:45.221Z,22.15
2023-01-07T21:59:12.423Z,17.92
2023-01-07T22:01:40.123Z,16.80
2023-01-07T22:04:07.697Z,16.02
2023-01-07T22:06:36.739Z,14.35
2023-01-07T22:09:08.117Z,14.38
2023-01-07T22:11:39.195Z,10.43
2023-01-07T22:14:06.701Z,12.10
2023-01-07T22:16:35.053Z,10.30
2023-01-07T22:19:03.076Z,9.90
2023-01-07T22:21:31.673Z,9.70
2023-01-07T22:24:00.036Z,9.90
2023-01-07T22:26:30.961Z,9.77
2023-01-07T22:29:03.285Z,8.32
2023-01-07T22:31:33.877Z,9.73
2023-01-07T22:34:01.441Z,10.60
2023-01-07T22:36:34.769Z,11.40
2023-01-07T22:39:07.717Z,12.70
2023-01-07T22:41:35.538Z,12.93
2023-01-07T22:44:09.330Z,11.85
2023-01-07T22:46:42.257Z,10.13
2023-01-07T22:49:09.606Z,9.80
2023-01-07T22:51:42.874Z,10.23
2023-01-07T22:54:12.546Z,8.38
2023-01-07T22:56:42.302Z,8.15
2023-01-07T22:59:10.091Z,7.55
2023-01-07T23:01:38.134Z,9.30
2023-01-07T23:04:05.562Z,9.15
2023-01-07T23:06:32.695Z,9.52
2023-01-07T23:09:00.329Z,10.05
2023-01-07T23:11:47.760Z,10.00
2023-01-07T23:14:25.907Z,9.55
2023-01-07T23:16:53.407Z,8.25
2023-01-07T23:19:21.989Z,7.85
2023-01-07T23:21:53.193Z,7.72
2023-01-07T23:24:23.175Z,8.65
2023-01-07T23:26:54.367Z,10.50
2023-01-07T23:29:22.095Z,12.68
2023-01-07T23:31:49.758Z,12.70
2023-01-07T23:34:17.897Z,11.95
2023-01-07T23:36:45.019Z,9.90
2023-01-07T23:39:12.387Z,8.15
2023-01-07T23:41:39.479Z,7.85
2023-01-07T23:44:07.534Z,8.98
2023-01-07T23:46:35.533Z,11.27
2023-01-07T23:49:05.520Z,11.20
2023-01-07T23:51:34.135Z,11.07
2023-01-07T23:54:01.214Z,11.80
2023-01-07T23:56:28.651Z,10.50
2023-01-07T23:58:55.828Z,10.70
